Time;durP1;ratioP1;P1;durP2;ratioP2;P2;SDS_P1;SDS_P2;PMS_P1;PMS_P2;Temp;Humidity;BMP_temperature;BMP_pressure;BME280_temperature;BME280_humidity;BME280_pressure;Samples;Min_cycle;Max_cycle;Signal;HPM_P1;HPM_P2
2023/02/27 00:00:25;;;;;;;9.00;4.88;;;-1.80;99.90;;;;;;4991395;28;20068;-78
2023/02/27 00:02:51;;;;;;;11.60;4.80;;;-1.80;99.90;;;;;;5006250;28;20038;-78
2023/02/27 00:05:17;;;;;;;9.05;4.72;;;-1.90;99.90;;;;;;5022415;28;20041;-77
2023/02/27 00:07:42;;;;;;;7.60;4.32;;;-1.70;99.90;;;;;;5019803;28;20096;-78
2023/02/27 00:10:08;;;;;;;8.48;4.57;;;-1.80;99.90;;;;;;5020148;28;20025;-78
2023/02/27 00:12:37;;;;;;;10.15;4.75;;;-1.80;99.90;;;;;;5008619;28;20025;-78
2023/02/27 00:15:10;;;;;;;11.07;5.55;;;-1.70;99.90;;;;;;5022912;28;20021;-78
2023/02/27 00:17:36;;;;;;;7.80;4.05;;;-1.80;99.90;;;;;;5017808;28;20497;-78
2023/02/27 00:20:02;;;;;;;9.60;4.72;;;-1.70;99.90;;;;;;5006096;28;20065;-78
2023/02/27 00:22:28;;;;;;;10.43;5.05;;;-1.70;99.90;;;;;;5004752;28;20026;-78
2023/02/27 00:24:54;;;;;;;8.95;4.85;;;-1.80;99.90;;;;;;5018259;28;20029;-77
2023/02/27 00:27:19;;;;;;;7.10;4.55;;;-1.90;99.90;;;;;;5020995;28;20435;-78
2023/02/27 00:29:45;;;;;;;10.10;4.47;;;-1.90;99.90;;;;;;5020080;28;20371;-77
2023/02/27 00:32:10;;;;;;;7.45;4.78;;;-1.90;99.90;;;;;;5019556;28;20025;-77
2023/02/27 00:34:36;;;;;;;8.80;4.60;;;-1.90;99.90;;;;;;5018891;28;20486;-77
2023/02/27 00:37:01;;;;;;;7.85;4.70;;;-1.90;99.90;;;;;;5006798;28;20381;-78
2023/02/27 00:39:27;;;;;;;7.38;4.80;;;-1.80;99.90;;;;;;5004957;28;20426;-77
2023/02/27 00:41:52;;;;;;;8.38;4.93;;;-1.80;99.90;;;;;;5001385;28;20370;-77
2023/02/27 00:44:18;;;;;;;6.57;5.30;;;-1.90;99.90;;;;;;5020330;28;20040;-78
2023/02/27 00:46:43;;;;;;;8.65;4.35;;;-2.00;99.90;;;;;;5005519;28;20041;-77
2023/02/27 00:49:09;;;;;;;7.05;4.25;;;-2.10;99.90;;;;;;5022307;28;20067;-77
2023/02/27 00:51:35;;;;;;;10.48;4.00;;;-2.00;99.90;;;;;;5022725;28;20470;-77
2023/02/27 00:54:00;;;;;;;6.53;4.05;;;-1.90;99.90;;;;;;5006712;28;20013;-76
2023/02/27 00:56:26;;;;;;;5.93;3.80;;;-2.00;99.90;;;;;;5018903;28;20029;-77
2023/02/27 00:58:51;;;;;;;10.90;4.13;;;-1.90;99.90;;;;;;5015640;28;20480;-77
2023/02/27 01:01:17;;;;;;;8.32;4.15;;;-2.20;99.90;;;;;;5018707;28;20405;-77
2023/02/27 01:03:43;;;;;;;4.85;3.58;;;-2.30;99.90;;;;;;5006191;28;20030;-77
2023/02/27 01:06:08;;;;;;;7.00;4.07;;;-2.20;99.90;;;;;;5020546;28;20087;-77
2023/02/27 01:08:34;;;;;;;10.18;3.78;;;-2.20;99.90;;;;;;5022608;28;20381;-77
2023/02/27 01:10:59;;;;;;;8.52;4.50;;;-2.20;99.90;;;;;;5020255;28;20034;-77
2023/02/27 01:13:25;;;;;;;6.35;3.80;;;-2.10;99.90;;;;;;5007913;28;20022;-76
2023/02/27 01:15:50;;;;;;;6.55;3.67;;;-2.10;99.90;;;;;;5002157;28;20083;-77
2023/02/27 01:18:16;;;;;;;6.53;3.97;;;-2.30;99.90;;;;;;5017215;28;20087;-76
2023/02/27 01:20:42;;;;;;;8.27;4.03;;;-1.80;99.90;;;;;;5003529;28;20087;-77
2023/02/27 01:23:07;;;;;;;8.20;4.80;;;-2.20;99.90;;;;;;5018528;28;20466;-77
2023/02/27 01:25:33;;;;;;;8.27;3.95;;;-2.20;99.90;;;;;;5019874;28;20029;-76
2023/02/27 01:27:59;;;;;;;13.50;4.95;;;-2.20;99.90;;;;;;5019410;28;20068;-77
2023/02/27 01:30:25;;;;;;;13.05;4.97;;;-2.20;99.90;;;;;;5021103;28;20029;-76
2023/02/27 01:32:50;;;;;;;10.32;5.35;;;-2.20;99.90;;;;;;5020498;28;20087;-77
2023/02/27 01:35:16;;;;;;;13.95;6.78;;;-2.20;99.90;;;;;;5016981;28;20425;-76
2023/02/27 01:37:43;;;;;;;10.07;5.63;;;-2.10;99.90;;;;;;5021213;28;20049;-77
2023/02/27 01:40:10;;;;;;;12.82;6.00;;;-2.10;99.90;;;;;;5009922;28;20442;-77
2023/02/27 01:42:36;;;;;;;14.18;5.32;;;-2.20;99.90;;;;;;5020506;28;20022;-76
2023/02/27 01:45:11;;;;;;;11.88;4.93;;;-2.20;99.90;;;;;;5017912;28;20032;-77
2023/02/27 01:47:41;;;;;;;13.10;5.97;;;-2.30;99.90;;;;;;5017988;28;20597;-78
2023/02/27 01:50:08;;;;;;;10.77;5.80;;;-2.50;99.90;;;;;;4997008;28;20087;-78
2023/02/27 01:52:34;;;;;;;12.73;5.10;;;-2.40;99.90;;;;;;5019452;28;20545;-77
2023/02/27 01:54:59;;;;;;;11.90;5.45;;;-2.60;99.90;;;;;;5021430;28;20469;-76
2023/02/27 01:57:25;;;;;;;8.02;4.32;;;-2.30;99.90;;;;;;5018012;28;20040;-78
2023/02/27 01:59:51;;;;;;;6.88;4.38;;;-2.30;99.90;;;;;;5016947;28;20044;-78
2023/02/27 02:02:20;;;;;;;7.53;4.15;;;-2.40;99.90;;;;;;5017870;28;20030;-78
2023/02/27 02:04:46;;;;;;;7.85;4.28;;;-2.50;99.90;;;;;;5005297;28;20034;-77
2023/02/27 02:07:14;;;;;;;10.18;3.92;;;-2.50;99.90;;;;;;5018807;28;20088;-77
2023/02/27 02:09:44;;;;;;;8.52;4.18;;;-2.50;99.90;;;;;;5017356;28;20056;-77
2023/02/27 02:12:12;;;;;;;13.38;4.10;;;-2.50;99.90;;;;;;5021723;28;20023;-78
2023/02/27 02:14:37;;;;;;;6.65;3.85;;;-2.40;99.90;;;;;;5020311;28;20041;-77
2023/02/27 02:17:29;;;;;;;10.88;4.22;;;-2.40;99.90;;;;;;5019255;28;20473;-79
2023/02/27 02:20:44;;;;;;;9.18;4.70;;;-2.40;99.90;;;;;;5019570;28;20100;-77
2023/02/27 02:23:10;;;;;;;7.15;4.15;;;-2.40;99.90;;;;;;5020914;28;20026;-77
2023/02/27 02:26:03;;;;;;;7.63;3.97;;;-2.30;99.90;;;;;;5024186;28;20063;-77
2023/02/27 02:28:41;;;;;;;10.85;4.45;;;-2.40;99.90;;;;;;5021714;28;20465;-78
2023/02/27 02:31:31;;;;;;;7.80;3.65;;;-2.50;99.90;;;;;;5023313;28;20079;-77
2023/02/27 02:34:33;;;;;;;9.20;3.92;;;-2.50;99.90;;;;;;5020054;28;20065;-77
2023/02/27 02:37:36;;;;;;;10.57;4.10;;;-2.50;99.90;;;;;;5018320;28;20492;-77
2023/02/27 02:40:20;;;;;;;7.57;4.28;;;-2.50;99.90;;;;;;5014853;28;20111;-78
2023/02/27 02:43:07;;;;;;;7.18;4.35;;;-2.60;99.90;;;;;;5018653;28;20029;-77
2023/02/27 02:45:43;;;;;;;8.05;4.57;;;-2.50;99.90;;;;;;5018665;28;20448;-77
2023/02/27 02:48:16;;;;;;;;;;;-2.50;99.90;;;;;;5003385;28;20029;-77
2023/02/27 02:51:04;;;;;;;8.43;4.85;;;-2.70;99.90;;;;;;5018178;28;19916;-77
2023/02/27 02:53:38;;;;;;;13.38;5.25;;;-2.90;99.90;;;;;;5017417;28;20509;-77
2023/02/27 02:56:16;;;;;;;6.53;4.47;;;-3.10;99.90;;;;;;5020124;28;20072;-77
2023/02/27 02:58:47;;;;;;;8.90;4.72;;;-3.00;99.90;;;;;;5008413;28;20040;-77
2023/02/27 03:01:19;;;;;;;7.13;5.55;;;-3.00;99.90;;;;;;5018907;28;20390;-77
2023/02/27 03:03:48;;;;;;;12.18;5.82;;;-3.00;99.90;;;;;;5015241;28;20033;-77
2023/02/27 03:06:18;;;;;;;9.70;5.18;;;-3.00;99.90;;;;;;5020586;28;20397;-76
2023/02/27 03:08:48;;;;;;;10.40;5.38;;;-3.00;99.90;;;;;;5014464;28;20017;-77
2023/02/27 03:11:13;;;;;;;8.27;5.05;;;-3.00;99.90;;;;;;5021279;28;20029;-77
2023/02/27 03:14:01;;;;;;;7.88;4.90;;;-3.00;99.90;;;;;;5020632;28;20029;-77
2023/02/27 03:16:43;;;;;;;8.30;4.60;;;-3.00;99.90;;;;;;4991573;28;20068;-76
2023/02/27 03:19:21;;;;;;;11.10;4.72;;;-2.90;99.90;;;;;;5022016;28;20018;-77
2023/02/27 03:22:04;;;;;;;7.97;4.72;;;-2.90;99.90;;;;;;5025849;28;20516;-77
2023/02/27 03:24:37;;;;;;;10.70;5.35;;;-3.00;99.90;;;;;;5011060;28;20164;-77
2023/02/27 03:27:03;;;;;;;9.38;5.35;;;-2.90;99.90;;;;;;4992356;28;20086;-77
2023/02/27 03:29:41;;;;;;;11.00;4.70;;;-2.90;99.90;;;;;;5026781;28;20129;-77
2023/02/27 03:32:16;;;;;;;9.50;4.68;;;-3.00;99.90;;;;;;4994808;28;20075;-77
2023/02/27 03:34:42;;;;;;;11.13;5.43;;;-3.00;99.90;;;;;;5023609;28;20030;-78
2023/02/27 03:37:14;;;;;;;12.85;5.07;;;-3.00;99.90;;;;;;5021582;28;20033;-78
2023/02/27 03:40:07;;;;;;;8.75;5.43;;;-3.10;99.90;;;;;;5021535;28;20028;-77
2023/02/27 03:42:45;;;;;;;11.80;5.13;;;-3.10;99.90;;;;;;5022537;28;20520;-76
2023/02/27 03:45:14;;;;;;;10.57;5.10;;;-3.20;99.90;;;;;;5022059;28;20021;-77
2023/02/27 03:47:40;;;;;;;7.60;4.60;;;-3.20;99.90;;;;;;5009481;28;20084;-77
2023/02/27 03:50:05;;;;;;;9.57;4.63;;;-3.20;99.90;;;;;;5023496;28;20014;-77
2023/02/27 03:52:31;;;;;;;6.65;4.60;;;-3.30;99.90;;;;;;5023364;28;20349;-77
2023/02/27 03:55:15;;;;;;;10.32;5.10;;;-3.30;99.90;;;;;;5006180;28;20030;-77
2023/02/27 03:57:40;;;;;;;9.77;5.60;;;-3.20;99.90;;;;;;4987983;28;20026;-77
2023/02/27 04:00:12;;;;;;;13.30;6.07;;;-3.30;99.90;;;;;;5022717;28;20048;-77
2023/02/27 04:02:38;;;;;;;13.73;5.30;;;-3.40;99.90;;;;;;5023344;28;20033;-76
2023/02/27 04:05:04;;;;;;;14.55;5.50;;;-3.40;99.90;;;;;;5022685;28;20047;-76
2023/02/27 04:07:47;;;;;;;9.43;4.95;;;-3.30;99.90;;;;;;5010870;28;20033;-77
2023/02/27 04:10:15;;;;;;;10.95;4.50;;;-3.20;99.90;;;;;;5021327;28;20105;-76
2023/02/27 04:12:56;;;;;;;14.80;5.10;;;-3.20;99.90;;;;;;5002846;28;20478;-79
2023/02/27 04:15:30;;;;;;;8.25;5.07;;;-3.10;99.90;;;;;;5024338;28;20034;-78
2023/02/27 04:17:59;;;;;;;7.82;4.60;;;-3.10;99.90;;;;;;5005463;28;20122;-77
2023/02/27 04:20:41;;;;;;;13.45;5.47;;;-3.00;99.90;;;;;;5022985;28;20029;-77
2023/02/27 04:23:28;;;;;;;10.73;5.10;;;-3.10;99.90;;;;;;5004053;28;20037;-77
2023/02/27 04:26:00;;;;;;;9.20;5.22;;;-3.30;99.90;;;;;;5002945;28;20029;-77
2023/02/27 04:29:01;;;;;;;11.13;6.25;;;-3.40;99.90;;;;;;5018057;28;20028;-77
2023/02/27 04:31:44;;;;;;;8.77;5.07;;;-3.40;99.90;;;;;;5019722;28;20033;-77
2023/02/27 04:34:19;;;;;;;10.23;5.10;;;-3.40;99.90;;;;;;5018893;28;20026;-76
2023/02/27 04:36:55;;;;;;;8.10;5.28;;;-3.50;99.90;;;;;;5021343;28;20025;-76
2023/02/27 04:39:26;;;;;;;9.75;5.38;;;-3.40;99.90;;;;;;5008562;28;20065;-76
2023/02/27 04:41:53;;;;;;;10.32;5.13;;;-3.40;99.90;;;;;;4999428;28;20223;-77
2023/02/27 04:44:19;;;;;;;11.27;6.05;;;-3.40;99.90;;;;;;5019484;28;20548;-77
2023/02/27 04:46:45;;;;;;;10.48;4.97;;;-3.50;99.90;;;;;;5019567;28;20034;-76
2023/02/27 04:49:27;;;;;;;11.18;5.60;;;-3.50;99.90;;;;;;5023255;28;20491;-77
2023/02/27 04:52:00;;;;;;;9.18;5.63;;;-3.50;99.90;;;;;;5007887;28;20407;-77
2023/02/27 04:54:53;;;;;;;11.30;5.30;;;-3.50;99.90;;;;;;5022951;28;20026;-77
2023/02/27 04:57:21;;;;;;;11.88;6.18;;;-3.60;99.90;;;;;;5015178;28;20026;-78
2023/02/27 04:59:49;;;;;;;10.05;5.50;;;-3.70;99.90;;;;;;5021093;28;20017;-77
2023/02/27 05:02:15;;;;;;;12.10;5.72;;;-3.80;99.90;;;;;;5018324;28;20026;-77
2023/02/27 05:04:42;;;;;;;10.23;5.60;;;-3.70;99.90;;;;;;5018897;28;20087;-77
2023/02/27 05:07:09;;;;;;;13.27;5.88;;;-3.60;99.90;;;;;;5009530;28;20029;-77
2023/02/27 05:09:45;;;;;;;14.60;5.57;;;-3.70;99.90;;;;;;5003758;28;20026;-77
2023/02/27 05:12:20;;;;;;;10.25;6.13;;;-3.60;99.90;;;;;;5006883;28;20028;-78
2023/02/27 05:14:51;;;;;;;10.68;5.05;;;-3.70;99.90;;;;;;5016094;28;20386;-77
2023/02/27 05:17:30;;;;;;;9.63;5.10;;;-3.60;99.90;;;;;;5007709;28;20030;-77
2023/02/27 05:19:55;;;;;;;13.68;5.80;;;-3.50;99.90;;;;;;4988585;28;20038;-77
2023/02/27 05:22:23;;;;;;;11.13;6.80;;;-3.50;99.90;;;;;;5010516;28;20620;-77
2023/02/27 05:25:03;;;;;;;11.70;6.13;;;-3.50;99.90;;;;;;5023878;28;20260;-77
2023/02/27 05:27:52;;;;;;;11.05;5.97;;;-3.60;99.90;;;;;;5021386;28;20033;-76
2023/02/27 05:30:33;;;;;;;12.23;6.05;;;-3.60;99.90;;;;;;5006493;28;20026;-77
2023/02/27 05:33:05;;;;;;;10.43;5.95;;;-3.80;99.90;;;;;;5021913;28;20021;-76
2023/02/27 05:35:44;;;;;;;11.90;5.40;;;-3.80;99.90;;;;;;5006676;28;20508;-77
2023/02/27 05:38:20;;;;;;;9.50;5.85;;;-3.90;99.90;;;;;;5021087;28;20045;-76
2023/02/27 05:40:51;;;;;;;8.55;5.10;;;-3.80;99.90;;;;;;5003175;28;20065;-77
2023/02/27 05:43:28;;;;;;;12.48;5.43;;;-3.80;99.90;;;;;;5022369;28;20025;-77
2023/02/27 05:45:57;;;;;;;10.60;5.55;;;-3.80;99.90;;;;;;5002708;28;20508;-76
2023/02/27 05:48:25;;;;;;;8.77;5.88;;;-3.80;99.90;;;;;;5018299;28;20461;-77
2023/02/27 05:50:51;;;;;;;12.63;6.78;;;-3.80;99.90;;;;;;5019886;28;20021;-77
2023/02/27 05:53:18;;;;;;;11.45;6.60;;;-3.90;99.90;;;;;;5015810;28;20032;-77
2023/02/27 05:55:47;;;;;;;10.52;5.85;;;-3.90;99.90;;;;;;5004250;28;20673;-76
2023/02/27 05:58:18;;;;;;;9.63;6.05;;;-3.90;99.90;;;;;;5001239;28;20053;-76
2023/02/27 06:00:49;;;;;;;12.20;6.63;;;-3.90;99.90;;;;;;5018347;28;20030;-76
2023/02/27 06:03:14;;;;;;;13.23;5.82;;;-3.90;99.90;;;;;;5018452;28;20022;-77
2023/02/27 06:05:40;;;;;;;11.18;6.13;;;-3.90;99.90;;;;;;5020527;28;20040;-76
2023/02/27 06:08:06;;;;;;;10.27;6.47;;;-3.90;99.90;;;;;;5008332;28;20508;-76
2023/02/27 06:10:32;;;;;;;12.05;5.78;;;-3.90;99.90;;;;;;5018750;28;20030;-76
2023/02/27 06:12:57;;;;;;;10.90;5.72;;;-3.90;99.90;;;;;;5017349;28;20112;-77
2023/02/27 06:15:23;;;;;;;15.13;6.82;;;-3.90;99.90;;;;;;5005729;28;20383;-76
2023/02/27 06:17:48;;;;;;;8.50;5.40;;;-3.90;99.90;;;;;;5018918;28;20057;-77
2023/02/27 06:20:14;;;;;;;13.30;6.38;;;-3.90;99.90;;;;;;5017120;28;20019;-76
2023/02/27 06:22:39;;;;;;;10.55;6.50;;;-3.90;99.90;;;;;;5017342;28;20454;-77
2023/02/27 06:25:05;;;;;;;10.95;6.85;;;-3.90;99.90;;;;;;5021225;28;20034;-76
2023/02/27 06:27:31;;;;;;;10.02;6.43;;;-3.90;99.90;;;;;;5007554;28;20029;-76
2023/02/27 06:29:56;;;;;;;15.60;8.27;;;-3.90;99.90;;;;;;5019201;28;20266;-76
2023/02/27 06:32:24;;;;;;;12.98;7.85;;;-3.90;99.90;;;;;;5013326;28;20033;-78
2023/02/27 06:34:50;;;;;;;9.93;5.93;;;-3.80;99.90;;;;;;5023956;28;20026;-77
2023/02/27 06:37:15;;;;;;;15.40;7.95;;;-3.60;99.90;;;;;;5019716;28;20638;-77
2023/02/27 06:39:41;;;;;;;12.40;6.40;;;-3.50;99.90;;;;;;5018486;28;20033;-77
2023/02/27 06:42:07;;;;;;;10.57;6.57;;;-3.70;99.90;;;;;;4992686;28;20025;-77
2023/02/27 06:44:32;;;;;;;17.40;7.05;;;-3.80;99.90;;;;;;5019594;28;20034;-78
2023/02/27 06:46:58;;;;;;;13.43;6.95;;;-3.90;99.90;;;;;;5024773;28;20503;-77
2023/02/27 06:49:23;;;;;;;12.20;7.00;;;-3.90;99.90;;;;;;5009649;28;20033;-77
2023/02/27 06:51:49;;;;;;;13.75;7.72;;;-3.90;99.90;;;;;;5022879;28;20025;-77
2023/02/27 06:54:14;;;;;;;16.45;7.82;;;-3.90;99.90;;;;;;5022718;28;20018;-77
2023/02/27 06:56:40;;;;;;;14.93;8.52;;;-3.90;99.90;;;;;;5022074;28;20037;-76
2023/02/27 06:59:05;;;;;;;13.65;7.90;;;-4.00;99.90;;;;;;5026871;28;20404;-75
2023/02/27 07:01:31;;;;;;;15.98;8.98;;;-4.00;99.90;;;;;;5010415;28;20065;-75
2023/02/27 07:03:57;;;;;;;15.35;9.57;;;-3.90;99.90;;;;;;5016152;28;20033;-75
2023/02/27 07:06:22;;;;;;;14.02;7.95;;;-3.90;99.90;;;;;;4994214;28;20045;-75
2023/02/27 07:08:48;;;;;;;12.82;8.02;;;-3.80;99.90;;;;;;5020994;28;20060;-75
2023/02/27 07:11:13;;;;;;;10.25;6.82;;;-3.70;99.90;;;;;;5024012;28;20026;-75
2023/02/27 07:13:39;;;;;;;16.50;8.18;;;-3.70;99.90;;;;;;5006162;28;20500;-75
2023/02/27 07:16:05;;;;;;;13.55;8.15;;;-3.60;99.90;;;;;;4990358;28;20018;-75
2023/02/27 07:18:31;;;;;;;11.35;8.18;;;-3.50;99.90;;;;;;5036258;28;20077;-75
2023/02/27 07:20:56;;;;;;;14.73;8.32;;;-3.40;99.90;;;;;;5007182;28;20050;-75
2023/02/27 07:23:22;;;;;;;21.45;8.80;;;-3.40;99.90;;;;;;5020016;28;20092;-75
2023/02/27 07:25:48;;;;;;;15.45;8.43;;;-3.30;99.90;;;;;;5019641;28;20446;-75
2023/02/27 07:28:13;;;;;;;20.58;9.68;;;-3.30;99.90;;;;;;5026084;28;20489;-74
2023/02/27 07:30:40;;;;;;;18.30;8.77;;;-3.30;99.90;;;;;;5006340;28;20037;-76
2023/02/27 07:33:06;;;;;;;22.73;9.52;;;-3.10;99.90;;;;;;5018287;28;20458;-75
2023/02/27 07:35:31;;;;;;;12.40;8.20;;;-3.10;99.90;;;;;;5022494;28;20028;-76
2023/02/27 07:37:57;;;;;;;16.50;8.90;;;-3.10;99.90;;;;;;5001798;28;20393;-77
2023/02/27 07:40:22;;;;;;;17.08;8.40;;;-3.00;99.90;;;;;;5021479;28;20041;-75
2023/02/27 07:42:48;;;;;;;12.20;8.05;;;-3.20;99.90;;;;;;5009208;28;20042;-76
2023/02/27 07:45:14;;;;;;;13.73;8.95;;;-3.10;99.90;;;;;;5021117;28;20037;-77
2023/02/27 07:47:39;;;;;;;14.73;8.60;;;-3.10;99.90;;;;;;5008791;28;20401;-75
2023/02/27 07:50:05;;;;;;;16.05;8.40;;;-3.10;99.90;;;;;;5021803;28;20014;-74
2023/02/27 07:52:31;;;;;;;12.90;7.68;;;-2.90;99.90;;;;;;5021433;28;20401;-76
2023/02/27 07:54:56;;;;;;;19.23;8.95;;;-2.60;99.90;;;;;;5016789;28;20030;-75
2023/02/27 07:57:22;;;;;;;22.70;8.98;;;-2.40;99.90;;;;;;5007133;28;20308;-75
2023/02/27 07:59:48;;;;;;;12.75;7.85;;;-2.40;99.90;;;;;;5002064;28;20034;-73
2023/02/27 08:02:13;;;;;;;19.02;7.90;;;-2.40;99.90;;;;;;5023850;28;20017;-75
2023/02/27 08:04:39;;;;;;;17.02;7.65;;;-2.40;99.90;;;;;;5022461;28;20033;-74
2023/02/27 08:07:05;;;;;;;12.98;7.80;;;-1.90;99.90;;;;;;5021347;28;20029;-74
2023/02/27 08:09:30;;;;;;;14.68;8.23;;;-2.00;99.90;;;;;;5019810;28;20067;-74
2023/02/27 08:11:57;;;;;;;11.70;7.38;;;-1.90;99.90;;;;;;5018079;28;20109;-73
2023/02/27 08:14:22;;;;;;;18.65;6.82;;;-1.80;99.90;;;;;;5021147;28;20038;-74
2023/02/27 08:16:48;;;;;;;16.35;7.72;;;-1.80;99.90;;;;;;5019527;28;20095;-74
2023/02/27 08:19:13;;;;;;;11.70;6.10;;;-1.90;99.90;;;;;;5018027;28;20026;-75
2023/02/27 08:21:39;;;;;;;12.70;7.18;;;-1.60;99.90;;;;;;5019599;28;20033;-75
2023/02/27 08:24:05;;;;;;;12.38;6.00;;;-1.70;99.90;;;;;;5017283;28;20087;-75
2023/02/27 08:26:30;;;;;;;12.27;6.15;;;-1.80;99.90;;;;;;5008564;28;20041;-74
2023/02/27 08:28:56;;;;;;;13.00;6.22;;;-1.90;99.90;;;;;;5017469;28;20021;-75
2023/02/27 08:31:22;;;;;;;20.38;6.63;;;-1.60;99.90;;;;;;5020875;28;20025;-75
2023/02/27 08:33:48;;;;;;;14.15;6.60;;;-1.40;99.90;;;;;;5021498;28;20113;-75
2023/02/27 08:36:13;;;;;;;9.75;4.38;;;-1.50;99.90;;;;;;5023727;28;20025;-75
2023/02/27 08:38:39;;;;;;;11.02;5.10;;;-1.20;99.90;;;;;;5005220;28;20052;-75
2023/02/27 08:41:04;;;;;;;12.43;5.50;;;-1.40;99.90;;;;;;5005484;28;20437;-76
2023/02/27 08:43:30;;;;;;;9.57;5.10;;;-1.40;99.90;;;;;;5020704;28;20528;-75
2023/02/27 08:45:55;;;;;;;11.98;5.07;;;-1.50;99.90;;;;;;5017260;28;20025;-75
2023/02/27 08:48:23;;;;;;;10.55;5.18;;;-1.20;99.90;;;;;;5020477;28;20034;-75
2023/02/27 08:50:49;;;;;;;5.88;4.50;;;-0.80;99.90;;;;;;5024064;28;20022;-75
2023/02/27 08:53:14;;;;;;;11.43;4.47;;;-0.40;99.90;;;;;;5019298;28;20442;-76
2023/02/27 08:55:41;;;;;;;11.95;5.47;;;-0.80;99.90;;;;;;5003140;28;20025;-76
2023/02/27 08:58:07;;;;;;;11.85;5.32;;;-0.90;99.90;;;;;;5018416;28;20036;-75
2023/02/27 09:00:32;;;;;;;7.50;4.57;;;-0.60;99.90;;;;;;5021658;28;20033;-76
2023/02/27 09:02:59;;;;;;;8.43;5.28;;;-0.10;99.90;;;;;;5017246;28;20104;-77
2023/02/27 09:05:24;;;;;;;15.68;4.97;;;-0.60;99.90;;;;;;5003630;28;20120;-75
2023/02/27 09:07:50;;;;;;;8.80;4.90;;;-0.40;99.90;;;;;;5018275;28;20108;-75
2023/02/27 09:10:16;;;;;;;11.30;5.00;;;-0.40;99.90;;;;;;4999740;28;20034;-75
2023/02/27 09:12:42;;;;;;;9.20;4.53;;;0.00;99.90;;;;;;5019254;28;20107;-75
2023/02/27 09:15:10;;;;;;;12.43;4.78;;;-0.30;99.90;;;;;;5014271;28;20026;-76
2023/02/27 09:17:35;;;;;;;7.38;3.35;;;0.40;99.90;;;;;;4987962;28;20036;-76
2023/02/27 09:20:03;;;;;;;7.10;4.35;;;0.50;99.90;;;;;;4999517;28;20030;-76
2023/02/27 09:22:28;;;;;;;7.55;3.85;;;0.80;99.90;;;;;;5012111;28;20413;-75
2023/02/27 09:24:54;;;;;;;11.32;4.50;;;1.10;99.90;;;;;;5014045;28;20018;-76
2023/02/27 09:27:20;;;;;;;7.05;3.63;;;0.80;99.90;;;;;;5002091;28;20022;-76
2023/02/27 09:29:47;;;;;;;8.40;4.25;;;1.00;99.90;;;;;;5012525;28;20071;-74
2023/02/27 09:32:13;;;;;;;7.22;3.88;;;0.70;99.90;;;;;;5005213;28;20448;-77
2023/02/27 09:34:41;;;;;;;7.50;3.75;;;0.40;99.90;;;;;;5002610;28;20022;-76
2023/02/27 09:37:07;;;;;;;5.40;3.20;;;0.70;99.90;;;;;;4988171;28;20504;-77
2023/02/27 09:39:39;;;;;;;7.57;3.40;;;0.70;99.90;;;;;;5017032;28;20034;-77
2023/02/27 09:42:08;;;;;;;7.35;3.03;;;0.80;99.90;;;;;;4983434;28;20397;-76
2023/02/27 09:44:47;;;;;;;6.38;2.97;;;1.00;99.90;;;;;;5000891;28;20025;-78
2023/02/27 09:47:23;;;;;;;8.38;2.60;;;1.30;99.90;;;;;;5018486;28;20033;-77
2023/02/27 09:50:01;;;;;;;;;;;0.70;99.90;;;;;;5001192;28;20040;-77
2023/02/27 09:52:28;;;;;;;12.23;3.38;;;1.30;99.90;;;;;;5006727;28;19931;-77
2023/02/27 09:54:54;;;;;;;9.55;3.20;;;0.80;99.90;;;;;;4999133;28;20068;-80
2023/02/27 09:57:42;;;;;;;5.30;2.83;;;0.40;99.90;;;;;;5013933;28;20053;-76
2023/02/27 10:00:11;;;;;;;2.92;2.00;;;0.90;99.90;;;;;;5016488;28;20116;-77
2023/02/27 10:03:06;;;;;;;7.07;2.75;;;1.40;99.90;;;;;;5020921;28;20037;-78
2023/02/27 10:06:01;;;;;;;12.23;2.28;;;1.90;99.90;;;;;;5016286;28;20037;-77
2023/02/27 10:08:29;;;;;;;5.30;2.35;;;1.90;99.90;;;;;;5014773;28;20040;-77
2023/02/27 10:11:04;;;;;;;3.85;2.00;;;1.80;99.90;;;;;;5001883;28;20441;-78
2023/02/27 10:13:35;;;;;;;4.57;2.40;;;1.50;99.90;;;;;;5000722;28;20025;-77
2023/02/27 10:16:01;;;;;;;6.35;1.63;;;2.00;99.90;;;;;;5015828;28;20874;-77
2023/02/27 10:18:40;;;;;;;5.07;1.90;;;2.50;99.90;;;;;;4998280;28;20072;-76
2023/02/27 10:21:08;;;;;;;7.97;2.10;;;2.40;99.90;;;;;;5005039;28;20527;-77
2023/02/27 10:23:45;;;;;;;4.70;2.17;;;2.10;99.90;;;;;;5017784;28;20680;-76
2023/02/27 10:26:22;;;;;;;7.22;2.65;;;1.90;99.90;;;;;;4984022;28;20851;-76
2023/02/27 10:28:47;;;;;;;4.80;2.33;;;1.70;99.90;;;;;;5012562;28;20025;-77
2023/02/27 10:31:19;;;;;;;5.28;1.70;;;1.60;99.90;;;;;;5001515;28;20385;-76
2023/02/27 10:33:46;;;;;;;5.13;1.80;;;2.10;99.90;;;;;;4999679;28;20552;-76
2023/02/27 10:36:12;;;;;;;4.03;1.52;;;2.60;99.90;;;;;;5006258;28;20108;-76
2023/02/27 10:38:46;;;;;;;5.53;2.20;;;2.80;99.90;;;;;;5001011;28;20633;-76
2023/02/27 10:41:13;;;;;;;6.78;2.15;;;3.30;99.90;;;;;;4988792;28;20033;-76
2023/02/27 10:43:40;;;;;;;8.60;1.90;;;3.40;99.90;;;;;;4999833;28;20036;-76
2023/02/27 10:46:20;;;;;;;2.20;1.77;;;3.70;99.90;;;;;;4988503;28;20465;-77
2023/02/27 10:48:45;;;;;;;5.03;2.40;;;4.10;99.90;;;;;;4998064;28;20067;-76
2023/02/27 10:51:27;;;;;;;5.60;2.15;;;3.10;99.90;;;;;;5006106;28;20013;-76
2023/02/27 10:54:13;;;;;;;5.35;2.20;;;3.00;99.90;;;;;;5014765;28;20029;-76
2023/02/27 10:56:39;;;;;;;3.08;1.98;;;3.60;99.90;;;;;;5001416;28;20032;-77
2023/02/27 10:59:06;;;;;;;6.70;2.13;;;3.90;99.90;;;;;;4989572;28;20433;-77
2023/02/27 11:01:48;;;;;;;9.02;2.30;;;3.50;99.90;;;;;;5019165;28;20029;-78
2023/02/27 11:04:13;;;;;;;9.07;2.28;;;3.80;99.90;;;;;;5014325;28;20105;-78
2023/02/27 11:06:39;;;;;;;5.38;2.17;;;4.10;99.90;;;;;;4996438;28;20125;-76
2023/02/27 11:09:27;;;;;;;3.38;2.00;;;3.60;99.90;;;;;;5017654;28;20072;-76
2023/02/27 11:11:52;;;;;;;4.28;1.92;;;3.60;99.90;;;;;;5009495;28;20058;-76
2023/02/27 11:14:18;;;;;;;3.25;2.10;;;4.10;99.90;;;;;;4998781;28;20089;-77
2023/02/27 11:16:55;;;;;;;4.18;2.20;;;4.50;99.90;;;;;;5014405;28;20126;-76
2023/02/27 11:19:37;;;;;;;6.57;2.30;;;4.40;99.90;;;;;;4985991;28;20095;-76
2023/02/27 11:22:23;;;;;;;6.43;2.90;;;4.40;99.90;;;;;;4998717;28;20033;-76
2023/02/27 11:24:49;;;;;;;5.45;2.22;;;4.40;99.90;;;;;;5001877;28;20109;-77
2023/02/27 11:27:28;;;;;;;4.63;2.00;;;4.60;99.90;;;;;;4997370;28;20152;-77
2023/02/27 11:30:02;;;;;;;3.38;2.03;;;4.30;99.90;;;;;;4983021;28;20141;-78
2023/02/27 11:32:42;;;;;;;4.13;2.13;;;4.30;99.90;;;;;;5004434;28;20317;-77
2023/02/27 11:35:27;;;;;;;3.83;1.70;;;4.10;99.90;;;;;;5017315;28;20017;-77
2023/02/27 11:37:54;;;;;;;4.22;1.70;;;4.20;99.90;;;;;;5017903;28;20124;-77
2023/02/27 11:40:20;;;;;;;11.23;1.98;;;4.30;99.90;;;;;;5004196;28;20466;-76
2023/02/27 11:43:01;;;;;;;7.63;2.30;;;4.30;99.90;;;;;;5018660;28;20026;-76
2023/02/27 11:45:38;;;;;;;6.28;1.88;;;4.60;99.90;;;;;;5016046;28;20384;-76
2023/02/27 11:48:30;;;;;;;8.25;1.95;;;4.70;99.90;;;;;;5018054;28;20057;-77
2023/02/27 11:51:05;;;;;;;3.30;1.70;;;4.70;99.90;;;;;;5004026;28;20076;-77
2023/02/27 11:53:55;;;;;;;5.15;2.67;;;4.90;99.90;;;;;;5019860;28;20489;-78
2023/02/27 11:56:30;;;;;;;4.13;1.95;;;4.80;99.90;;;;;;5022477;28;20497;-78
2023/02/27 11:59:12;;;;;;;6.00;2.30;;;5.00;99.90;;;;;;5016578;28;20499;-78
2023/02/27 12:01:43;;;;;;;1.92;1.27;;;4.80;99.90;;;;;;5017351;28;20026;-78
2023/02/27 12:04:19;;;;;;;5.82;2.15;;;5.00;99.90;;;;;;5036652;28;20028;-76
2023/02/27 12:07:39;;;;;;;8.73;2.40;;;4.80;99.90;;;;;;5004311;28;20457;-77
2023/02/27 12:10:21;;;;;;;5.93;2.63;;;4.90;99.90;;;;;;4968746;28;20498;-78
2023/02/27 12:12:53;;;;;;;3.70;2.30;;;4.70;99.90;;;;;;5004813;28;20654;-78
2023/02/27 12:15:26;;;;;;;7.00;2.00;;;4.80;99.90;;;;;;5017787;28;20458;-77
2023/02/27 12:18:02;;;;;;;3.28;2.10;;;4.80;99.90;;;;;;5000778;28;20026;-78
2023/02/27 12:20:33;;;;;;;2.70;1.80;;;4.70;99.90;;;;;;5001414;28;20040;-78
2023/02/27 12:22:59;;;;;;;4.28;1.73;;;4.60;99.90;;;;;;5016416;28;20030;-78
2023/02/27 12:26:02;;;;;;;6.07;1.90;;;5.10;99.90;;;;;;5016974;28;20028;-78
2023/02/27 12:28:51;;;;;;;4.35;1.75;;;5.20;99.90;;;;;;4990335;28;20049;-78
2023/02/27 12:31:37;;;;;;;2.90;1.65;;;5.30;99.90;;;;;;5005977;28;20036;-78
2023/02/27 12:34:04;;;;;;;10.93;2.30;;;5.50;99.90;;;;;;5014858;28;20030;-78
2023/02/27 12:36:30;;;;;;;6.78;1.83;;;5.30;99.90;;;;;;5005911;28;20034;-76
2023/02/27 12:38:55;;;;;;;3.05;1.88;;;5.70;99.90;;;;;;5005323;28;20516;-76
2023/02/27 12:41:42;;;;;;;4.70;1.65;;;5.40;99.90;;;;;;5004167;28;20055;-76
2023/02/27 12:44:31;;;;;;;3.88;1.92;;;5.10;99.90;;;;;;5021516;28;20516;-75
2023/02/27 12:47:14;;;;;;;3.28;1.73;;;5.10;99.90;;;;;;5019842;28;20551;-76
2023/02/27 12:50:03;;;;;;;2.83;1.40;;;5.50;99.90;;;;;;5019654;28;20516;-76
2023/02/27 12:52:36;;;;;;;5.47;1.60;;;5.50;99.90;;;;;;5017070;28;20045;-76
2023/02/27 12:55:05;;;;;;;2.92;1.73;;;5.30;99.90;;;;;;5023196;28;20371;-77
2023/02/27 12:57:51;;;;;;;5.40;1.70;;;5.60;99.90;;;;;;5022843;28;20017;-77
2023/02/27 13:00:21;;;;;;;4.72;1.98;;;6.20;99.90;;;;;;5023157;28;20025;-77
2023/02/27 13:02:58;;;;;;;3.85;1.85;;;6.00;99.90;;;;;;5003722;28;20079;-77
2023/02/27 13:05:31;;;;;;;5.93;2.50;;;5.80;99.90;;;;;;5020091;28;20029;-78